sensor_id;sensor_type;location;lat;lon;timestamp;pressure;altitude;pressure_sealevel;temperature;humidity
829;BME280;396;52.558;13.188;2023-04-08T00:01:16;101558.06;;;6.11;100.00
829;BME280;396;52.558;13.188;2023-04-08T00:03:43;101560.50;;;6.13;100.00
829;BME280;396;52.558;13.188;2023-04-08T00:06:11;101557.41;;;6.21;100.00
829;BME280;396;52.558;13.188;2023-04-08T00:08:37;101560.91;;;6.21;100.00
829;BME280;396;52.558;13.188;2023-04-08T00:11:04;101563.91;;;6.25;100.00
829;BME280;396;52.558;13.188;2023-04-08T00:13:31;101569.78;;;6.22;100.00
829;BME280;396;52.558;13.188;2023-04-08T00:15:57;101574.91;;;6.23;100.00
829;BME280;396;52.558;13.188;2023-04-08T00:18:24;101572.28;;;6.28;100.00
829;BME280;396;52.558;13.188;2023-04-08T00:20:51;101572.78;;;6.25;100.00
829;BME280;396;52.558;13.188;2023-04-08T00:23:19;101568.22;;;6.26;100.00
829;BME280;396;52.558;13.188;2023-04-08T00:25:46;101572.03;;;6.30;100.00
829;BME280;396;52.558;13.188;2023-04-08T00:28:13;101574.41;;;6.26;100.00
829;BME280;396;52.558;13.188;2023-04-08T00:30:40;101577.44;;;6.13;100.00
829;BME280;396;52.558;13.188;2023-04-08T00:33:06;101571.00;;;6.14;100.00
829;BME280;396;52.558;13.188;2023-04-08T00:35:34;101565.81;;;6.07;100.00
829;BME280;396;52.558;13.188;2023-04-08T00:38:00;101566.22;;;6.16;100.00
829;BME280;396;52.558;13.188;2023-04-08T00:40:29;101573.75;;;6.19;100.00
829;BME280;396;52.558;13.188;2023-04-08T00:42:56;101566.53;;;6.20;100.00
829;BME280;396;52.558;13.188;2023-04-08T00:45:23;101570.16;;;6.30;100.00
829;BME280;396;52.558;13.188;2023-04-08T00:47:49;101582.00;;;6.29;100.00
829;BME280;396;52.558;13.188;2023-04-08T00:50:17;101579.41;;;6.18;100.00
829;BME280;396;52.558;13.188;2023-04-08T00:52:44;101576.44;;;6.19;100.00
829;BME280;396;52.558;13.188;2023-04-08T00:55:10;101566.13;;;6.11;100.00
829;BME280;396;52.558;13.188;2023-04-08T00:57:38;101565.63;;;6.14;100.00
829;BME280;396;52.558;13.188;2023-04-08T01:00:06;101563.94;;;6.08;100.00
829;BME280;396;52.558;13.188;2023-04-08T01:02:38;101559.84;;;6.05;100.00
829;BME280;396;52.558;13.188;2023-04-08T01:05:12;101561.31;;;6.13;100.00
829;BME280;396;52.558;13.188;2023-04-08T01:07:44;101559.69;;;6.12;100.00
829;BME280;396;52.558;13.188;2023-04-08T01:10:15;101569.94;;;6.15;100.00
829;BME280;396;52.558;13.188;2023-04-08T01:12:49;101572.13;;;6.18;100.00
829;BME280;396;52.558;13.188;2023-04-08T01:15:17;101566.81;;;6.23;100.00
829;BME280;396;52.558;13.188;2023-04-08T01:17:44;101561.78;;;6.27;100.00
829;BME280;396;52.558;13.188;2023-04-08T01:20:12;101563.75;;;6.15;100.00
829;BME280;396;52.558;13.188;2023-04-08T01:22:57;101567.34;;;6.20;100.00
829;BME280;396;52.558;13.188;2023-04-08T01:25:29;101572.06;;;6.13;100.00
829;BME280;396;52.558;13.188;2023-04-08T01:27:59;101566.38;;;6.10;100.00
829;BME280;396;52.558;13.188;2023-04-08T01:30:27;101568.56;;;6.13;100.00
829;BME280;396;52.558;13.188;2023-04-08T01:32:56;101566.22;;;6.16;100.00
829;BME280;396;52.558;13.188;2023-04-08T01:35:25;101568.38;;;6.19;100.00
829;BME280;396;52.558;13.188;2023-04-08T01:37:52;101578.91;;;6.21;100.00
829;BME280;396;52.558;13.188;2023-04-08T01:40:20;101582.66;;;6.20;100.00
829;BME280;396;52.558;13.188;2023-04-08T01:42:47;101581.19;;;6.29;100.00
829;BME280;396;52.558;13.188;2023-04-08T01:45:16;101580.88;;;6.09;100.00
829;BME280;396;52.558;13.188;2023-04-08T01:47:44;101576.91;;;6.11;100.00
829;BME280;396;52.558;13.188;2023-04-08T01:50:13;101578.94;;;6.04;100.00
829;BME280;396;52.558;13.188;2023-04-08T01:52:42;101582.91;;;6.18;100.00
829;BME280;396;52.558;13.188;2023-04-08T01:55:10;101593.25;;;6.26;100.00
829;BME280;396;52.558;13.188;2023-04-08T01:57:37;101587.88;;;6.26;100.00
829;BME280;396;52.558;13.188;2023-04-08T02:00:07;101594.31;;;6.25;100.00
829;BME280;396;52.558;13.188;2023-04-08T02:02:36;101594.06;;;6.27;100.00
829;BME280;396;52.558;13.188;2023-04-08T02:05:04;101593.25;;;6.26;100.00
829;BME280;396;52.558;13.188;2023-04-08T02:07:30;101596.81;;;6.32;100.00
829;BME280;396;52.558;13.188;2023-04-08T02:09:57;101595.25;;;6.36;100.00
829;BME280;396;52.558;13.188;2023-04-08T02:12:24;101585.00;;;6.33;100.00
829;BME280;396;52.558;13.188;2023-04-08T02:14:52;101587.06;;;6.26;100.00
829;BME280;396;52.558;13.188;2023-04-08T02:17:23;101583.63;;;6.30;100.00
829;BME280;396;52.558;13.188;2023-04-08T02:19:57;101579.38;;;6.35;100.00
829;BME280;396;52.558;13.188;2023-04-08T02:22:38;101581.00;;;6.36;100.00
829;BME280;396;52.558;13.188;2023-04-08T02:25:10;101585.91;;;6.22;100.00
829;BME280;396;52.558;13.188;2023-04-08T02:27:39;101594.06;;;6.27;100.00
829;BME280;396;52.558;13.188;2023-04-08T02:30:07;101588.69;;;6.27;100.00
829;BME280;396;52.558;13.188;2023-04-08T02:32:34;101593.81;;;6.28;100.00
829;BME280;396;52.558;13.188;2023-04-08T02:35:04;101611.19;;;6.38;100.00
829;BME280;396;52.558;13.188;2023-04-08T02:37:30;101609.59;;;6.42;100.00
829;BME280;396;52.558;13.188;2023-04-08T02:39:58;101605.47;;;6.34;100.00
829;BME280;396;52.558;13.188;2023-04-08T02:42:24;101615.97;;;6.36;100.00
829;BME280;396;52.558;13.188;2023-04-08T02:44:51;101619.81;;;6.40;100.00
829;BME280;396;52.558;13.188;2023-04-08T02:47:17;101614.41;;;6.40;100.00
829;BME280;396;52.558;13.188;2023-04-08T02:49:44;101619.09;;;6.27;100.00
829;BME280;396;52.558;13.188;2023-04-08T02:52:12;101616.38;;;6.27;100.00
829;BME280;396;52.558;13.188;2023-04-08T02:54:39;101622.44;;;6.35;100.00
829;BME280;396;52.558;13.188;2023-04-08T02:57:05;101622.91;;;6.31;100.00
829;BME280;396;52.558;13.188;2023-04-08T02:59:32;101620.97;;;6.27;100.00
829;BME280;396;52.558;13.188;2023-04-08T03:02:01;101622.84;;;6.26;100.00
829;BME280;396;52.558;13.188;2023-04-08T03:04:28;101630.97;;;6.31;100.00
829;BME280;396;52.558;13.188;2023-04-08T03:06:55;101621.84;;;6.32;100.00
829;BME280;396;52.558;13.188;2023-04-08T03:09:23;101617.31;;;6.33;100.00
829;BME280;396;52.558;13.188;2023-04-08T03:11:49;101626.81;;;6.41;100.00
829;BME280;396;52.558;13.188;2023-04-08T03:14:19;101627.75;;;6.29;100.00
829;BME280;396;52.558;13.188;2023-04-08T03:19:20;101625.38;;;6.16;100.00
829;BME280;396;52.558;13.188;2023-04-08T03:21:47;101626.28;;;6.22;100.00
829;BME280;396;52.558;13.188;2023-04-08T03:24:13;101628.28;;;6.31;100.00
829;BME280;396;52.558;13.188;2023-04-08T03:26:41;101633.00;;;6.41;100.00
829;BME280;396;52.558;13.188;2023-04-08T03:29:08;101635.78;;;6.46;100.00
829;BME280;396;52.558;13.188;2023-04-08T03:31:34;101635.53;;;6.48;100.00
829;BME280;396;52.558;13.188;2023-04-08T03:34:01;101634.78;;;6.52;100.00
829;BME280;396;52.558;13.188;2023-04-08T03:36:28;101641.66;;;6.43;100.00
829;BME280;396;52.558;13.188;2023-04-08T03:38:55;101641.66;;;6.43;100.00
829;BME280;396;52.558;13.188;2023-04-08T03:41:22;101641.16;;;6.46;100.00
829;BME280;396;52.558;13.188;2023-04-08T03:43:50;101636.59;;;6.47;100.00
829;BME280;396;52.558;13.188;2023-04-08T03:46:16;101635.53;;;6.48;100.00
829;BME280;396;52.558;13.188;2023-04-08T03:48:43;101641.97;;;6.47;100.00
829;BME280;396;52.558;13.188;2023-04-08T03:51:09;101643.75;;;6.41;100.00
829;BME280;396;52.558;13.188;2023-04-08T03:53:36;101644.56;;;6.42;100.00
829;BME280;396;52.558;13.188;2023-04-08T03:56:03;101649.72;;;6.43;100.00
829;BME280;396;52.558;13.188;2023-04-08T03:58:30;101653.78;;;6.46;100.00
829;BME280;396;52.558;13.188;2023-04-08T04:00:58;101649.34;;;6.35;100.00
829;BME280;396;52.558;13.188;2023-04-08T04:03:24;101649.34;;;6.35;100.00
829;BME280;396;52.558;13.188;2023-04-08T04:05:51;101648.25;;;6.36;100.00
829;BME280;396;52.558;13.188;2023-04-08T04:08:18;101654.66;;;6.29;100.00
829;BME280;396;52.558;13.188;2023-04-08T04:10:44;101655.78;;;6.34;100.00
829;BME280;396;52.558;13.188;2023-04-08T04:13:11;101660.66;;;6.37;100.00
829;BME280;396;52.558;13.188;2023-04-08T04:15:38;101665.47;;;6.35;100.00
829;BME280;396;52.558;13.188;2023-04-08T04:18:06;101678.19;;;6.39;100.00
829;BME280;396;52.558;13.188;2023-04-08T04:20:33;101669.38;;;6.44;100.00
829;BME280;396;52.558;13.188;2023-04-08T04:23:00;101669.44;;;6.49;100.00
829;BME280;396;52.558;13.188;2023-04-08T04:25:27;101688.28;;;6.49;100.00
829;BME280;396;52.558;13.188;2023-04-08T04:27:53;101679.97;;;6.50;100.00
829;BME280;396;52.558;13.188;2023-04-08T04:30:20;101679.72;;;6.52;100.00
829;BME280;396;52.558;13.188;2023-04-08T04:32:47;101687.22;;;6.50;100.00
829;BME280;396;52.558;13.188;2023-04-08T04:35:15;101681.69;;;6.56;100.00
829;BME280;396;52.558;13.188;2023-04-08T04:37:41;101686.00;;;6.57;100.00
829;BME280;396;52.558;13.188;2023-04-08T04:40:08;101690.91;;;6.61;100.00
829;BME280;396;52.558;13.188;2023-04-08T04:42:35;101692.53;;;6.62;100.00
829;BME280;396;52.558;13.188;2023-04-08T04:45:02;101687.47;;;6.65;100.00
829;BME280;396;52.558;13.188;2023-04-08T04:47:29;101694.16;;;6.63;100.00
829;BME280;396;52.558;13.188;2023-04-08T04:49:56;101690.31;;;6.58;100.00
829;BME280;396;52.558;13.188;2023-04-08T04:52:24;101701.47;;;6.67;100.00
829;BME280;396;52.558;13.188;2023-04-08T04:54:51;101699.84;;;6.66;100.00
829;BME280;396;52.558;13.188;2023-04-08T04:57:18;101706.06;;;6.67;100.00
829;BME280;396;52.558;13.188;2023-04-08T04:59:44;101703.94;;;6.69;100.00
829;BME280;396;52.558;13.188;2023-04-08T05:02:11;101709.06;;;6.70;100.00
829;BME280;396;52.558;13.188;2023-04-08T05:04:38;101714.22;;;6.55;100.00
829;BME280;396;52.558;13.188;2023-04-08T05:07:04;101717.75;;;6.55;100.00
829;BME280;396;52.558;13.188;2023-04-08T05:09:32;101709.47;;;6.62;100.00
829;BME280;396;52.558;13.188;2023-04-08T05:11:59;101720.84;;;6.64;100.00
829;BME280;396;52.558;13.188;2023-04-08T05:14:28;101715.19;;;6.66;100.00
829;BME280;396;52.558;13.188;2023-04-08T05:16:54;101723.00;;;6.67;100.00
829;BME280;396;52.558;13.188;2023-04-08T05:19:21;101728.16;;;6.69;100.00
829;BME280;396;52.558;13.188;2023-04-08T05:21:48;101731.16;;;6.72;100.00
829;BME280;396;52.558;13.188;2023-04-08T05:24:14;101735.91;;;6.65;100.00
829;BME280;396;52.558;13.188;2023-04-08T05:26:42;101735.19;;;6.70;100.00
829;BME280;396;52.558;13.188;2023-04-08T05:29:09;101740.63;;;6.75;100.00
829;BME280;396;52.558;13.188;2023-04-08T05:31:36;101738.75;;;6.75;100.00
829;BME280;396;52.558;13.188;2023-04-08T05:34:02;101741.63;;;6.69;100.00
829;BME280;396;52.558;13.188;2023-04-08T05:36:29;101745.69;;;6.71;100.00
829;BME280;396;52.558;13.188;2023-04-08T05:38:56;101745.03;;;6.81;100.00
829;BME280;396;52.558;13.188;2023-04-08T05:41:25;101747.50;;;6.82;100.00
829;BME280;396;52.558;13.188;2023-04-08T05:43:53;101750.75;;;6.85;100.00
829;BME280;396;52.558;13.188;2023-04-08T05:46:20;101759.69;;;6.90;100.00
829;BME280;396;52.558;13.188;2023-04-08T05:48:47;101759.47;;;6.92;100.00
829;BME280;396;52.558;13.188;2023-04-08T05:51:14;101759.78;;;6.95;100.00
829;BME280;396;52.558;13.188;2023-04-08T05:53:42;101756.78;;;6.92;100.00
829;BME280;396;52.558;13.188;2023-04-08T05:56:10;101764.66;;;6.98;100.00
829;BME280;396;52.558;13.188;2023-04-08T05:58:37;101771.78;;;7.04;100.00
829;BME280;396;52.558;13.188;2023-04-08T06:01:05;101763.75;;;7.10;100.00
829;BME280;396;52.558;13.188;2023-04-08T06:03:31;101776.50;;;7.14;100.00
829;BME280;396;52.558;13.188;2023-04-08T06:05:58;101778.78;;;7.05;100.00
829;BME280;396;52.558;13.188;2023-04-08T06:08:25;101778.38;;;7.14;100.00
829;BME280;396;52.558;13.188;2023-04-08T06:10:51;101780.53;;;7.17;100.00
829;BME280;396;52.558;13.188;2023-04-08T06:13:18;101785.72;;;7.18;100.00
829;BME280;396;52.558;13.188;2023-04-08T06:15:46;101783.56;;;7.20;100.00
829;BME280;396;52.558;13.188;2023-04-08T06:18:15;101784.56;;;7.14;100.00
829;BME280;396;52.558;13.188;2023-04-08T06:20:42;101785.13;;;7.16;100.00
829;BME280;396;52.558;13.188;2023-04-08T06:23:08;101787.75;;;7.11;100.00
829;BME280;396;52.558;13.188;2023-04-08T06:25:35;101798.84;;;7.15;100.00
829;BME280;396;52.558;13.188;2023-04-08T06:28:02;101786.94;;;7.11;100.00
829;BME280;396;52.558;13.188;2023-04-08T06:30:28;101796.31;;;7.08;100.00
829;BME280;396;52.558;13.188;2023-04-08T06:32:55;101789.38;;;7.12;100.00
829;BME280;396;52.558;13.188;2023-04-08T06:35:23;101790.09;;;7.24;100.00
829;BME280;396;52.558;13.188;2023-04-08T06:37:52;101799.31;;;7.28;100.00
829;BME280;396;52.558;13.188;2023-04-08T06:40:19;101803.06;;;7.27;100.00
829;BME280;396;52.558;13.188;2023-04-08T06:42:46;101804.75;;;7.33;100.00
829;BME280;396;52.558;13.188;2023-04-08T06:45:13;101811.22;;;7.32;100.00
829;BME280;396;52.558;13.188;2023-04-08T06:47:40;101816.13;;;7.36;100.00
829;BME280;396;52.558;13.188;2023-04-08T06:50:07;101823.28;;;7.47;100.00
829;BME280;396;52.558;13.188;2023-04-08T06:52:35;101821.78;;;7.56;100.00
829;BME280;396;52.558;13.188;2023-04-08T06:55:02;101827.22;;;7.61;100.00
829;BME280;396;52.558;13.188;2023-04-08T06:57:28;101823.72;;;7.61;100.00
829;BME280;396;52.558;13.188;2023-04-08T06:59:55;101821.72;;;7.73;100.00
829;BME280;396;52.558;13.188;2023-04-08T07:02:22;101830.94;;;7.77;100.00
829;BME280;396;52.558;13.188;2023-04-08T07:04:48;101830.69;;;7.78;100.00
829;BME280;396;52.558;13.188;2023-04-08T07:07:15;101836.38;;;7.82;100.00
829;BME280;396;52.558;13.188;2023-04-08T07:09:43;101841.59;;;7.89;100.00
829;BME280;396;52.558;13.188;2023-04-08T07:12:10;101846.03;;;7.78;100.00
829;BME280;396;52.558;13.188;2023-04-08T07:14:37;101840.34;;;7.74;100.00
829;BME280;396;52.558;13.188;2023-04-08T07:17:04;101842.91;;;7.86;100.00
829;BME280;396;52.558;13.188;2023-04-08T07:19:31;101837.41;;;7.98;100.00
829;BME280;396;52.558;13.188;2023-04-08T07:21:57;101844.03;;;8.12;100.00
829;BME280;396;52.558;13.188;2023-04-08T07:24:24;101842.75;;;8.20;100.00
829;BME280;396;52.558;13.188;2023-04-08T07:26:52;101851.09;;;8.18;100.00
829;BME280;396;52.558;13.188;2023-04-08T07:29:20;101859.09;;;8.08;100.00
829;BME280;396;52.558;13.188;2023-04-08T07:31:47;101869.19;;;7.96;100.00
829;BME280;396;52.558;13.188;2023-04-08T07:34:13;101863.47;;;7.92;100.00
829;BME280;396;52.558;13.188;2023-04-08T07:36:40;101864.88;;;7.73;100.00
829;BME280;396;52.558;13.188;2023-04-08T07:39:07;101868.44;;;7.78;100.00
829;BME280;396;52.558;13.188;2023-04-08T07:41:34;101867.78;;;7.88;100.00
829;BME280;396;52.558;13.188;2023-04-08T07:44:02;101870.00;;;7.96;100.00
829;BME280;396;52.558;13.188;2023-04-08T07:46:28;101874.19;;;8.09;100.00
829;BME280;396;52.558;13.188;2023-04-08T07:48:55;101877.72;;;8.09;100.00
829;BME280;396;52.558;13.188;2023-04-08T07:51:22;101882.13;;;8.16;100.00
829;BME280;396;52.558;13.188;2023-04-08T07:53:49;101883.78;;;8.22;100.00
829;BME280;396;52.558;13.188;2023-04-08T07:56:15;101887.19;;;8.34;100.00
829;BME280;396;52.558;13.188;2023-04-08T07:58:43;101884.28;;;8.41;100.00
829;BME280;396;52.558;13.188;2023-04-08T08:01:18;101887.44;;;8.54;100.00
829;BME280;396;52.558;13.188;2023-04-08T08:03:46;101901.06;;;8.70;100.00
829;BME280;396;52.558;13.188;2023-04-08T08:06:12;101890.34;;;8.80;100.00
829;BME280;396;52.558;13.188;2023-04-08T08:08:39;101892.81;;;8.81;100.00
829;BME280;396;52.558;13.188;2023-04-08T08:11:06;101896.88;;;8.84;100.00
829;BME280;396;52.558;13.188;2023-04-08T08:13:33;101895.84;;;8.90;100.00
829;BME280;396;52.558;13.188;2023-04-08T08:16:00;101892.88;;;8.92;100.00
829;BME280;396;52.558;13.188;2023-04-08T08:18:28;101888.38;;;9.02;100.00
829;BME280;396;52.558;13.188;2023-04-08T08:20:55;101887.09;;;9.10;100.00
829;BME280;396;52.558;13.188;2023-04-08T08:23:21;101890.41;;;9.17;100.00
829;BME280;396;52.558;13.188;2023-04-08T08:25:48;101889.31;;;9.18;100.00
829;BME280;396;52.558;13.188;2023-04-08T08:28:15;101884.78;;;9.29;100.00
829;BME280;396;52.558;13.188;2023-04-08T08:30:41;101894.94;;;9.49;100.00
829;BME280;396;52.558;13.188;2023-04-08T08:33:08;101894.44;;;9.57;100.00
829;BME280;396;52.558;13.188;2023-04-08T08:35:36;101904.66;;;9.50;100.00
829;BME280;396;52.558;13.188;2023-04-08T08:38:02;101897.47;;;9.66;100.00
829;BME280;396;52.558;13.188;2023-04-08T08:40:29;101910.44;;;9.69;100.00
829;BME280;396;52.558;13.188;2023-04-08T08:42:56;101910.47;;;9.74;99.32
829;BME280;396;52.558;13.188;2023-04-08T08:45:23;101912.97;;;9.85;99.09
829;BME280;396;52.558;13.188;2023-04-08T08:47:50;101915.41;;;9.87;99.18
829;BME280;396;52.558;13.188;2023-04-08T08:50:17;101923.84;;;9.96;98.86
829;BME280;396;52.558;13.188;2023-04-08T08:52:48;101917.56;;;9.80;98.54
829;BME280;396;52.558;13.188;2023-04-08T08:55:17;101925.84;;;9.63;97.89
829;BME280;396;52.558;13.188;2023-04-08T08:57:43;101922.03;;;9.59;98.27
829;BME280;396;52.558;13.188;2023-04-08T09:00:11;101921.94;;;9.44;99.05
829;BME280;396;52.558;13.188;2023-04-08T09:02:40;101923.53;;;9.40;99.51
829;BME280;396;52.558;13.188;2023-04-08T09:05:07;101934.38;;;9.45;99.90
829;BME280;396;52.558;13.188;2023-04-08T09:07:35;101935.50;;;9.49;100.00
829;BME280;396;52.558;13.188;2023-04-08T09:10:04;101937.78;;;9.67;99.68
829;BME280;396;52.558;13.188;2023-04-08T09:12:30;101943.03;;;9.84;98.79
829;BME280;396;52.558;13.188;2023-04-08T09:15:04;101946.50;;;9.79;98.90
829;BME280;396;52.558;13.188;2023-04-08T09:17:31;101949.22;;;9.79;98.75
829;BME280;396;52.558;13.188;2023-04-08T09:20:06;101953.06;;;9.89;98.50
829;BME280;396;52.558;13.188;2023-04-08T09:22:57;101949.53;;;9.83;98.52
829;BME280;396;52.558;13.188;2023-04-08T09:27:53;101949.59;;;9.98;97.26
829;BME280;396;52.558;13.188;2023-04-08T09:30:22;101957.53;;;9.68;98.14
829;BME280;396;52.558;13.188;2023-04-08T09:32:50;101959.44;;;9.72;97.88
829;BME280;396;52.558;13.188;2023-04-08T09:35:18;101967.88;;;9.81;97.98
829;BME280;396;52.558;13.188;2023-04-08T09:37:45;101967.41;;;9.89;97.73
829;BME280;396;52.558;13.188;2023-04-08T09:40:12;101978.06;;;10.11;96.91
829;BME280;396;52.558;13.188;2023-04-08T09:42:42;101974.75;;;9.99;96.17
829;BME280;396;52.558;13.188;2023-04-08T09:45:11;101969.50;;;9.77;96.39
829;BME280;396;52.558;13.188;2023-04-08T09:47:46;101976.31;;;9.84;96.94
829;BME280;396;52.558;13.188;2023-04-08T09:50:19;101974.94;;;9.87;98.04
829;BME280;396;52.558;13.188;2023-04-08T09:52:52;101973.16;;;10.03;97.62
829;BME280;396;52.558;13.188;2023-04-08T09:55:24;101972.94;;;10.09;96.02
829;BME280;396;52.558;13.188;2023-04-08T09:57:57;101970.09;;;9.89;96.65
829;BME280;396;52.558;13.188;2023-04-08T10:00:29;101969.44;;;10.14;95.96
829;BME280;396;52.558;13.188;2023-04-08T10:03:04;101977.25;;;10.05;96.37
829;BME280;396;52.558;13.188;2023-04-08T10:05:36;101976.25;;;10.27;96.00
829;BME280;396;52.558;13.188;2023-04-08T10:08:03;101980.91;;;10.31;95.21
829;BME280;396;52.558;13.188;2023-04-08T10:10:31;101977.56;;;10.19;94.92
829;BME280;396;52.558;13.188;2023-04-08T10:12:58;101981.19;;;10.40;95.20
829;BME280;396;52.558;13.188;2023-04-08T10:15:27;101979.88;;;10.53;95.08
829;BME280;396;52.558;13.188;2023-04-08T10:17:55;101975.00;;;10.45;93.59
829;BME280;396;52.558;13.188;2023-04-08T10:20:41;101984.81;;;10.66;93.39
829;BME280;396;52.558;13.188;2023-04-08T10:23:10;101972.06;;;10.61;91.49
829;BME280;396;52.558;13.188;2023-04-08T10:25:39;101975.09;;;10.80;92.23
829;BME280;396;52.558;13.188;2023-04-08T10:28:24;101978.34;;;10.98;92.34
829;BME280;396;52.558;13.188;2023-04-08T10:30:53;101972.16;;;11.18;92.18
829;BME280;396;52.558;13.188;2023-04-08T10:33:21;101975.66;;;11.28;91.29
829;BME280;396;52.558;13.188;2023-04-08T10:35:52;101983.84;;;11.33;90.49
829;BME280;396;52.558;13.188;2023-04-08T10:38:19;101981.13;;;11.33;90.68
829;BME280;396;52.558;13.188;2023-04-08T10:40:47;101983.56;;;11.30;89.70
829;BME280;396;52.558;13.188;2023-04-08T10:43:15;101983.84;;;11.33;89.22
829;BME280;396;52.558;13.188;2023-04-08T10:45:43;101983.81;;;11.28;88.96
829;BME280;396;52.558;13.188;2023-04-08T10:48:12;101975.69;;;11.33;88.84
829;BME280;396;52.558;13.188;2023-04-08T10:50:39;101982.75;;;11.29;89.40
829;BME280;396;52.558;13.188;2023-04-08T10:53:06;101983.81;;;11.28;89.04
829;BME280;396;52.558;13.188;2023-04-08T10:55:33;101977.31;;;11.19;88.37
829;BME280;396;52.558;13.188;2023-04-08T10:58:04;101978.38;;;11.13;87.84
829;BME280;396;52.558;13.188;2023-04-08T11:00:32;101982.19;;;11.22;87.93
829;BME280;396;52.558;13.188;2023-04-08T11:02:59;101986.53;;;11.44;87.33
829;BME280;396;52.558;13.188;2023-04-08T11:05:29;101984.03;;;11.73;87.14
829;BME280;396;52.558;13.188;2023-04-08T11:07:56;101978.81;;;12.12;85.99
829;BME280;396;52.558;13.188;2023-04-08T11:10:23;101976.53;;;12.45;83.76
829;BME280;396;52.558;13.188;2023-04-08T11:12:52;101982.44;;;12.57;81.22
829;BME280;396;52.558;13.188;2023-04-08T11:15:20;101974.81;;;12.59;79.89
829;BME280;396;52.558;13.188;2023-04-08T11:17:47;101982.44;;;12.57;77.84
829;BME280;396;52.558;13.188;2023-04-08T11:20:16;101975.81;;;12.73;78.51
829;BME280;396;52.558;13.188;2023-04-08T11:22:44;101980.13;;;12.84;77.29
829;BME280;396;52.558;13.188;2023-04-08T11:25:11;101985.59;;;12.79;76.13
829;BME280;396;52.558;13.188;2023-04-08T11:27:38;101980.25;;;12.59;75.59
829;BME280;396;52.558;13.188;2023-04-08T11:30:06;101982.19;;;12.48;76.72
829;BME280;396;52.558;13.188;2023-04-08T11:32:34;101981.91;;;12.55;77.68
829;BME280;396;52.558;13.188;2023-04-08T11:35:03;101987.28;;;12.65;78.00
829;BME280;396;52.558;13.188;2023-04-08T11:37:36;101986.34;;;12.90;77.40
829;BME280;396;52.558;13.188;2023-04-08T11:40:07;101985.63;;;13.13;74.95
829;BME280;396;52.558;13.188;2023-04-08T11:42:34;101981.53;;;13.16;74.07
829;BME280;396;52.558;13.188;2023-04-08T11:45:09;101989.13;;;13.24;73.92
829;BME280;396;52.558;13.188;2023-04-08T11:47:36;101987.47;;;13.18;73.23
829;BME280;396;52.558;13.188;2023-04-08T11:50:03;101981.81;;;13.49;72.86
829;BME280;396;52.558;13.188;2023-04-08T11:52:40;101981.88;;;13.73;70.96
829;BME280;396;52.558;13.188;2023-04-08T11:55:09;101973.31;;;13.84;70.74
829;BME280;396;52.558;13.188;2023-04-08T11:57:36;101977.63;;;13.61;70.70
829;BME280;396;52.558;13.188;2023-04-08T12:00:04;101971.97;;;13.53;70.76
829;BME280;396;52.558;13.188;2023-04-08T12:02:31;101979.19;;;13.38;69.86
829;BME280;396;52.558;13.188;2023-04-08T12:04:58;101984.94;;;13.32;70.26
829;BME280;396;52.558;13.188;2023-04-08T12:07:25;101981.47;;;13.26;70.50
829;BME280;396;52.558;13.188;2023-04-08T12:09:52;101989.94;;;13.25;71.16
829;BME280;396;52.558;13.188;2023-04-08T12:12:20;101985.25;;;13.30;70.59
829;BME280;396;52.558;13.188;2023-04-08T12:14:46;101990.66;;;13.35;70.83
829;BME280;396;52.558;13.188;2023-04-08T12:17:13;101981.38;;;13.36;70.57
829;BME280;396;52.558;13.188;2023-04-08T12:19:40;101978.69;;;13.31;69.90
829;BME280;396;52.558;13.188;2023-04-08T12:22:06;101979.97;;;13.44;70.61
829;BME280;396;52.558;13.188;2023-04-08T12:24:33;101986.28;;;13.69;69.99
829;BME280;396;52.558;13.188;2023-04-08T12:27:00;101977.84;;;14.18;69.31
829;BME280;396;52.558;13.188;2023-04-08T12:29:30;101984.88;;;14.67;64.85
829;BME280;396;52.558;13.188;2023-04-08T12:31:57;101984.53;;;15.25;63.21
829;BME280;396;52.558;13.188;2023-04-08T12:34:24;101988.53;;;15.79;62.94
829;BME280;396;52.558;13.188;2023-04-08T12:36:50;101987.81;;;16.56;58.63
829;BME280;396;52.558;13.188;2023-04-08T12:39:17;101983.09;;;16.34;57.03
829;BME280;396;52.558;13.188;2023-04-08T12:41:44;101993.28;;;15.87;58.78
829;BME280;396;52.558;13.188;2023-04-08T12:44:10;101983.84;;;15.33;60.11
829;BME280;396;52.558;13.188;2023-04-08T12:46:38;101986.56;;;15.01;60.75
829;BME280;396;52.558;13.188;2023-04-08T12:49:05;101986.56;;;14.82;62.40
829;BME280;396;52.558;13.188;2023-04-08T12:51:33;101979.34;;;14.72;62.71
829;BME280;396;52.558;13.188;2023-04-08T12:54:00;101977.19;;;14.50;62.28
829;BME280;396;52.558;13.188;2023-04-08T12:56:27;101977.00;;;14.66;63.90
829;BME280;396;52.558;13.188;2023-04-08T12:58:54;101976.53;;;14.58;62.73
829;BME280;396;52.558;13.188;2023-04-08T13:01:21;101970.84;;;14.55;61.97
829;BME280;396;52.558;13.188;2023-04-08T13:03:50;101974.34;;;14.36;63.29
829;BME280;396;52.558;13.188;2023-04-08T13:06:16;101970.63;;;14.27;62.89
829;BME280;396;52.558;13.188;2023-04-08T13:08:43;101961.47;;;14.18;65.18
829;BME280;396;52.558;13.188;2023-04-08T13:11:09;101966.16;;;14.36;66.32
829;BME280;396;52.558;13.188;2023-04-08T13:13:36;101973.72;;;14.82;63.50
829;BME280;396;52.558;13.188;2023-04-08T13:16:03;101967.59;;;15.42;62.65
829;BME280;396;52.558;13.188;2023-04-08T13:18:29;101967.41;;;16.76;57.55
829;BME280;396;52.558;13.188;2023-04-08T13:20:58;101967.13;;;17.45;55.61
829;BME280;396;52.558;13.188;2023-04-08T13:23:25;101965.78;;;18.05;52.24
829;BME280;396;52.558;13.188;2023-04-08T13:25:51;101972.53;;;18.56;49.47
829;BME280;396;52.558;13.188;2023-04-08T13:28:18;101977.81;;;19.48;49.67
829;BME280;396;52.558;13.188;2023-04-08T13:30:44;101970.34;;;19.65;47.44